Paul Mclernan — WDJ4817 — position and weather

sailwx.info

Track history (hours):
 
Tides and Currents Weather Stations Pressure Air Temp Water Temp Dewpoint Dewpoint Depression Visibility Wind Speed Wind Dir Waves Ship Positions

Paul Mclernan

Owner: KIRBY OFFSHORE MARINE, LLC, HOUSTON, TX. More information available from US FCC via Universal Licensing System and Coast Guard Vessel Documentation Center.

Last reported at 2018-Jul-15 14:09 UTC. Time now 2018-Jul-16 12:25 UTC.
Position N 27°07' W 079°54'.

Length 184 m; draft 9 m.

Type: . MMSI: 369262000.

Date/timePositionNaut miles runAvg speedWind from/ knotsBaromVisibWave heightAir tempDewpointWater temp
2018-Jul-15 14:09N 27°07' W 079°54'215.4
2018-Jul-15 14:00N 27°05' W 079°54'815.2
2018-Jul-15 13:30N 26°57' W 079°54'815.1
2018-Jul-15 13:00N 26°50' W 079°54'814.7
2018-Jul-15 12:26N 26°41' W 079°54'715.0
2018-Jul-15 11:58N 26°35' W 079°54'714.2
2018-Jul-15 11:30N 26°28' W 079°54'714.2
2018-Jul-15 11:00N 26°21' W 079°54'714.2
2018-Jul-15 10:30N 26°14' W 079°54'714.4
2018-Jul-15 10:00N 26°07' W 079°53'714.7
2018-Jul-15 09:31N 25°59' W 079°52'815.4
2018-Jul-15 09:01N 25°52' W 079°54'815.6
2018-Jul-15 08:30N 25°44' W 079°54'815.7
2018-Jul-15 08:01N 25°36' W 079°54'815.8
2018-Jul-15 07:30N 25°28' W 079°56'  
2018-Jul-07 02:57N 25°22' W 080°03'5 9.8
2018-Jul-07 02:30N 25°26' W 080°02'5 9.7
2018-Jul-07 02:00N 25°31' W 080°02'5 9.5
2018-Jul-07 01:30N 25°36' W 080°02'5 9.2
2018-Jul-07 00:59N 25°41' W 080°02'4 9.2
2018-Jul-07 00:30N 25°45' W 080°02'5 8.9
2018-Jul-07 00:00N 25°50' W 080°02'4 8.7
2018-Jul-06 23:30N 25°54' W 080°02'4 8.8
2018-Jul-06 23:00N 25°58' W 080°02'4 7.2
2018-Jul-06 22:30N 26°02' W 080°02'4 7.0
2018-Jul-06 22:00N 26°06' W 080°02'4 8.2
2018-Jul-06 21:30N 26°10' W 080°02'5 9.1
2018-Jul-06 21:00N 26°14' W 080°01'5 9.2
2018-Jul-06 20:30N 26°19' W 080°01'5 9.4
2018-Jul-06 20:00N 26°23' W 080°00'510.0
2018-Jul-06 19:29N 26°29' W 079°60'510.2
2018-Jul-06 19:00N 26°33' W 079°59'1310.2
2018-Jul-06 17:42N 26°47' W 079°58'210.3
2018-Jul-06 17:30N 26°49' W 079°58'5 9.6
2018-Jul-06 17:00N 26°54' W 079°58'5 9.3
2018-Jul-06 16:28N 26°58' W 079°58'4 9.1
2018-Jul-06 16:00N 27°03' W 079°59'  
Track history (hours):
 
Tides and Currents Weather Stations Pressure Air Temp Water Temp Dewpoint Dewpoint Depression Visibility Wind Speed Wind Dir Waves Ship Positions

Paul Mclernan

Owner: KIRBY OFFSHORE MARINE, LLC, HOUSTON, TX. More information available from US FCC via Universal Licensing System and Coast Guard Vessel Documentation Center.

Last reported at 2018-Jul-15 14:09 UTC. Time now 2018-Jul-16 12:25 UTC.
Position N 27°07' W 079°54'.

Length 184 m; draft 9 m.

Type: . MMSI: 369262000.

Date/timePositionNaut miles runAvg speedWind from/ knotsBaromVisibWave heightAir tempDewpointWater temp
2018-Jul-15 14:09N 27°07' W 079°54'215.4
2018-Jul-15 14:00N 27°05' W 079°54'815.2
2018-Jul-15 13:30N 26°57' W 079°54'815.1
2018-Jul-15 13:00N 26°50' W 079°54'814.7
2018-Jul-15 12:26N 26°41' W 079°54'715.0
2018-Jul-15 11:58N 26°35' W 079°54'714.2
2018-Jul-15 11:30N 26°28' W 079°54'714.2
2018-Jul-15 11:00N 26°21' W 079°54'714.2
2018-Jul-15 10:30N 26°14' W 079°54'714.4
2018-Jul-15 10:00N 26°07' W 079°53'714.7
2018-Jul-15 09:31N 25°59' W 079°52'815.4
2018-Jul-15 09:01N 25°52' W 079°54'815.6
2018-Jul-15 08:30N 25°44' W 079°54'815.7
2018-Jul-15 08:01N 25°36' W 079°54'815.8
2018-Jul-15 07:30N 25°28' W 079°56'  
2018-Jul-07 02:57N 25°22' W 080°03'5 9.8
2018-Jul-07 02:30N 25°26' W 080°02'5 9.7
2018-Jul-07 02:00N 25°31' W 080°02'5 9.5
2018-Jul-07 01:30N 25°36' W 080°02'5 9.2
2018-Jul-07 00:59N 25°41' W 080°02'4 9.2
2018-Jul-07 00:30N 25°45' W 080°02'5 8.9
2018-Jul-07 00:00N 25°50' W 080°02'4 8.7
2018-Jul-06 23:30N 25°54' W 080°02'4 8.8
2018-Jul-06 23:00N 25°58' W 080°02'4 7.2
2018-Jul-06 22:30N 26°02' W 080°02'4 7.0
2018-Jul-06 22:00N 26°06' W 080°02'4 8.2
2018-Jul-06 21:30N 26°10' W 080°02'5 9.1
2018-Jul-06 21:00N 26°14' W 080°01'5 9.2
2018-Jul-06 20:30N 26°19' W 080°01'5 9.4
2018-Jul-06 20:00N 26°23' W 080°00'510.0
2018-Jul-06 19:29N 26°29' W 079°60'510.2
2018-Jul-06 19:00N 26°33' W 079°59'1310.2
2018-Jul-06 17:42N 26°47' W 079°58'210.3
2018-Jul-06 17:30N 26°49' W 079°58'5 9.6
2018-Jul-06 17:00N 26°54' W 079°58'5 9.3
2018-Jul-06 16:28N 26°58' W 079°58'4 9.1
2018-Jul-06 16:00N 27°03' W 079°59'  

Dump ship's entire track history